Time;durP1;ratioP1;P1;durP2;ratioP2;P2;SDS_P1;SDS_P2;PMS_P1;PMS_P2;Temp;Humidity;BMP_temperature;BMP_pressure;BME280_temperature;BME280_humidity;BME280_pressure;Samples;Min_cycle;Max_cycle;Signal;HPM_P1;HPM_P2
2023/04/18 00:00:48;;;;;;;15.80;11.13;;;;;;;;;;4972328;28;20439;-62
2023/04/18 00:03:14;;;;;;;12.52;10.93;;;;;;;;;;4973306;28;20022;-62
2023/04/18 00:05:40;;;;;;;13.52;10.82;;;;;;;;;;4971855;28;20495;-63
2023/04/18 00:08:07;;;;;;;14.20;10.00;;;;;;;;;;4973105;28;20395;-63
2023/04/18 00:10:33;;;;;;;14.63;11.07;;;;;;;;;;4972825;28;20038;-62
2023/04/18 00:12:59;;;;;;;14.20;10.93;;;;;;;;;;4973249;28;22309;-62
2023/04/18 00:15:25;;;;;;;14.35;11.18;;;;;;;;;;4972850;28;20045;-62
2023/04/18 00:17:55;;;;;;;13.40;11.02;;;;;;;;;;4972532;28;20391;-63
2023/04/18 00:20:21;;;;;;;11.88;10.52;;;;;;;;;;4972997;28;20954;-62
2023/04/18 00:22:47;;;;;;;13.80;10.85;;;;;;;;;;4971903;28;20035;-62
2023/04/18 00:25:13;;;;;;;13.65;11.10;;;;;;;;;;4972528;28;20038;-62
2023/04/18 00:27:39;;;;;;;15.38;11.43;;;;;;;;;;4972405;28;20118;-63
2023/04/18 00:30:05;;;;;;;14.35;11.30;;;;;;;;;;4972553;28;20085;-62
2023/04/18 00:32:31;;;;;;;14.18;11.38;;;;;;;;;;4972332;28;20487;-62
2023/04/18 00:34:57;;;;;;;13.05;11.45;;;;;;;;;;4972842;28;20035;-63
2023/04/18 00:37:23;;;;;;;15.38;11.73;;;;;;;;;;4972569;28;20031;-62
2023/04/18 00:39:52;;;;;;;14.77;11.63;;;;;;;;;;4972229;28;20521;-62
2023/04/18 00:42:18;;;;;;;14.90;12.05;;;;;;;;;;4972026;28;20038;-63
2023/04/18 00:44:44;;;;;;;14.80;12.30;;;;;;;;;;4971995;28;20509;-63
2023/04/18 00:47:10;;;;;;;15.35;12.52;;;;;;;;;;4972227;28;20030;-63
2023/04/18 00:49:36;;;;;;;15.32;12.20;;;;;;;;;;4971659;28;20471;-63
2023/04/18 00:52:02;;;;;;;14.43;12.27;;;;;;;;;;4972299;28;20038;-63
2023/04/18 00:54:29;;;;;;;15.23;12.15;;;;;;;;;;4971812;28;20054;-62
2023/04/18 00:56:55;;;;;;;16.20;11.85;;;;;;;;;;4972333;28;20110;-63
2023/04/18 00:59:21;;;;;;;15.50;13.55;;;;;;;;;;4972229;28;20034;-63
2023/04/18 01:01:47;;;;;;;17.58;14.25;;;;;;;;;;4971807;28;20029;-63
2023/04/18 01:04:13;;;;;;;17.58;13.85;;;;;;;;;;4971898;28;20106;-63
2023/04/18 01:06:39;;;;;;;16.77;13.90;;;;;;;;;;4972182;28;20447;-63
2023/04/18 01:09:05;;;;;;;17.23;13.52;;;;;;;;;;4972119;28;20026;-64
2023/04/18 01:11:31;;;;;;;17.05;13.32;;;;;;;;;;4971754;28;20050;-61
2023/04/18 01:14:04;;;;;;;16.77;14.13;;;;;;;;;;4971842;28;20030;-63
2023/04/18 01:16:35;;;;;;;15.52;13.02;;;;;;;;;;4972586;28;20037;-62
2023/04/18 01:19:02;;;;;;;17.83;14.10;;;;;;;;;;4971781;28;20398;-63
2023/04/18 01:21:32;;;;;;;17.45;14.15;;;;;;;;;;4972286;28;20039;-64
2023/04/18 01:24:08;;;;;;;18.67;15.02;;;;;;;;;;4971750;28;20431;-64
2023/04/18 01:26:34;;;;;;;;;;;;;;;;;;4972039;28;20045;-64
2023/04/18 01:29:00;;;;;;;17.08;12.88;;;;;;;;;;4971699;28;20314;-64
2023/04/18 01:31:26;;;;;;;17.42;14.60;;;;;;;;;;4972231;28;20077;-65
2023/04/18 01:33:52;;;;;;;17.85;14.10;;;;;;;;;;4971457;28;20055;-64
2023/04/18 01:36:18;;;;;;;16.83;14.10;;;;;;;;;;4972122;28;20038;-64
2023/04/18 01:38:44;;;;;;;19.50;15.52;;;;;;;;;;4970283;28;20514;-63
2023/04/18 01:41:10;;;;;;;16.55;14.40;;;;;;;;;;4972023;28;20035;-63
2023/04/18 01:43:36;;;;;;;17.13;14.07;;;;;;;;;;4971454;28;20093;-64
2023/04/18 01:46:02;;;;;;;18.25;15.68;;;;;;;;;;4971319;28;20043;-64
2023/04/18 01:48:28;;;;;;;18.63;15.45;;;;;;;;;;4971754;28;20027;-65
2023/04/18 01:50:54;;;;;;;17.65;13.85;;;;;;;;;;4971009;28;20031;-63
2023/04/18 01:53:20;;;;;;;16.33;14.30;;;;;;;;;;4971065;28;20062;-63
2023/04/18 01:55:48;;;;;;;15.88;14.18;;;;;;;;;;4971329;28;20106;-63
2023/04/18 01:58:15;;;;;;;17.17;15.32;;;;;;;;;;4971362;28;20038;-64
2023/04/18 02:00:41;;;;;;;18.67;14.68;;;;;;;;;;4971482;28;20030;-64
2023/04/18 02:03:07;;;;;;;19.60;15.65;;;;;;;;;;4971635;28;20407;-64
2023/04/18 02:05:33;;;;;;;18.27;14.90;;;;;;;;;;4971289;28;20034;-63
2023/04/18 02:07:58;;;;;;;17.17;14.90;;;;;;;;;;4972169;28;20042;-64
2023/04/18 02:10:24;;;;;;;19.75;16.05;;;;;;;;;;4971730;28;20031;-63
2023/04/18 02:12:50;;;;;;;16.45;14.00;;;;;;;;;;4971666;28;20026;-63
2023/04/18 02:15:16;;;;;;;17.13;14.32;;;;;;;;;;4970868;28;20023;-63
2023/04/18 02:17:42;;;;;;;20.52;15.30;;;;;;;;;;4971105;28;20034;-63
2023/04/18 02:20:09;;;;;;;18.33;14.73;;;;;;;;;;4971317;28;20023;-63
2023/04/18 02:22:37;;;;;;;16.92;14.80;;;;;;;;;;4971705;28;20030;-63
2023/04/18 02:25:03;;;;;;;18.65;15.93;;;;;;;;;;4971226;28;20038;-64
2023/04/18 02:27:29;;;;;;;17.58;14.38;;;;;;;;;;4971762;28;20035;-63
2023/04/18 02:29:55;;;;;;;19.02;14.88;;;;;;;;;;4974238;28;20030;-64
2023/04/18 02:32:21;;;;;;;17.92;15.18;;;;;;;;;;4975250;28;20483;-64
2023/04/18 02:34:47;;;;;;;16.10;13.55;;;;;;;;;;4974280;28;20037;-64
2023/04/18 02:37:13;;;;;;;16.55;14.13;;;;;;;;;;4974502;28;20057;-64
2023/04/18 02:39:39;;;;;;;17.10;14.93;;;;;;;;;;4974761;28;20026;-63
2023/04/18 02:42:05;;;;;;;16.40;14.15;;;;;;;;;;4974628;28;20042;-64
2023/04/18 02:44:30;;;;;;;17.95;15.02;;;;;;;;;;4974827;28;20398;-63
2023/04/18 02:46:56;;;;;;;15.90;13.82;;;;;;;;;;4974343;28;20038;-63
2023/04/18 02:49:22;;;;;;;15.30;13.70;;;;;;;;;;4974255;28;20027;-63
2023/04/18 02:51:49;;;;;;;16.60;14.38;;;;;;;;;;4973767;28;20495;-64
2023/04/18 02:54:15;;;;;;;16.60;14.07;;;;;;;;;;4974115;28;20483;-64
2023/04/18 02:56:41;;;;;;;17.17;14.65;;;;;;;;;;4973683;28;20031;-63
2023/04/18 02:59:07;;;;;;;17.17;14.10;;;;;;;;;;4974298;28;20039;-63
2023/04/18 03:01:34;;;;;;;17.50;13.32;;;;;;;;;;4973881;28;20031;-63
2023/04/18 03:04:00;;;;;;;16.63;14.25;;;;;;;;;;4974339;28;20459;-63
2023/04/18 03:06:26;;;;;;;16.38;13.77;;;;;;;;;;4974376;28;20102;-63
2023/04/18 03:08:52;;;;;;;15.80;13.77;;;;;;;;;;4974295;28;20488;-63
2023/04/18 03:11:18;;;;;;;17.00;14.07;;;;;;;;;;4974099;28;20039;-64
2023/04/18 03:13:44;;;;;;;15.18;13.23;;;;;;;;;;4973950;28;20089;-64
2023/04/18 03:16:10;;;;;;;16.35;13.95;;;;;;;;;;4973836;28;20041;-63
2023/04/18 03:18:36;;;;;;;16.10;14.15;;;;;;;;;;4973645;28;20026;-63
2023/04/18 03:21:02;;;;;;;15.48;13.52;;;;;;;;;;4973918;28;20035;-63
2023/04/18 03:23:28;;;;;;;16.75;13.60;;;;;;;;;;4973470;28;20038;-63
2023/04/18 03:25:54;;;;;;;16.23;13.57;;;;;;;;;;4973584;28;20039;-63
2023/04/18 03:28:20;;;;;;;16.95;13.38;;;;;;;;;;4973709;28;20030;-63
2023/04/18 03:30:46;;;;;;;16.67;13.25;;;;;;;;;;4973095;28;20041;-63
2023/04/18 03:33:13;;;;;;;15.80;12.93;;;;;;;;;;4973423;28;20051;-63
2023/04/18 03:35:39;;;;;;;18.83;13.90;;;;;;;;;;4973252;28;20039;-63
2023/04/18 03:38:05;;;;;;;14.52;12.63;;;;;;;;;;4973464;28;20031;-63
2023/04/18 03:40:31;;;;;;;16.67;12.98;;;;;;;;;;4972552;28;20050;-63
2023/04/18 03:42:58;;;;;;;14.45;12.75;;;;;;;;;;4971965;28;20113;-63
2023/04/18 03:45:24;;;;;;;15.00;12.80;;;;;;;;;;4973481;28;20037;-63
2023/04/18 03:47:50;;;;;;;16.77;13.63;;;;;;;;;;4973128;28;20101;-63
2023/04/18 03:50:16;;;;;;;17.25;13.25;;;;;;;;;;4973435;28;20027;-63
2023/04/18 03:52:42;;;;;;;15.80;14.13;;;;;;;;;;4973110;28;20035;-63
2023/04/18 03:55:08;;;;;;;18.02;13.40;;;;;;;;;;4972956;28;20448;-63
2023/04/18 03:57:34;;;;;;;14.98;13.38;;;;;;;;;;4973240;28;20031;-63
2023/04/18 04:00:00;;;;;;;15.50;12.70;;;;;;;;;;4973220;28;20090;-63
2023/04/18 04:02:26;;;;;;;13.95;12.45;;;;;;;;;;4973388;28;20035;-63
2023/04/18 04:04:52;;;;;;;12.90;11.45;;;;;;;;;;4972975;28;20042;-63
2023/04/18 04:07:18;;;;;;;14.05;12.15;;;;;;;;;;4972724;28;20491;-63
2023/04/18 04:09:44;;;;;;;15.07;12.05;;;;;;;;;;4973147;28;20027;-62
2023/04/18 04:12:10;;;;;;;14.10;12.60;;;;;;;;;;4972977;28;20069;-63
2023/04/18 04:14:36;;;;;;;13.57;12.15;;;;;;;;;;4972672;28;20058;-64
2023/04/18 04:17:02;;;;;;;13.52;12.02;;;;;;;;;;4972703;28;20105;-62
2023/04/18 04:19:28;;;;;;;13.85;12.00;;;;;;;;;;4973445;28;20049;-63
2023/04/18 04:21:54;;;;;;;14.20;11.73;;;;;;;;;;4972820;28;20024;-63
2023/04/18 04:24:21;;;;;;;14.75;12.32;;;;;;;;;;4973267;28;20034;-64
2023/04/18 04:26:49;;;;;;;13.98;11.68;;;;;;;;;;4972328;28;20049;-64
2023/04/18 04:29:15;;;;;;;14.05;12.52;;;;;;;;;;4972961;28;20431;-63
2023/04/18 04:31:41;;;;;;;13.82;12.27;;;;;;;;;;4972106;28;20031;-63
2023/04/18 04:34:07;;;;;;;13.32;11.70;;;;;;;;;;4972977;28;20034;-64
2023/04/18 04:36:33;;;;;;;13.18;11.70;;;;;;;;;;4972416;28;20129;-63
2023/04/18 04:39:03;;;;;;;14.00;11.48;;;;;;;;;;4972546;28;20035;-64
2023/04/18 04:41:29;;;;;;;15.02;12.00;;;;;;;;;;4971873;28;20407;-64
2023/04/18 04:43:55;;;;;;;14.88;11.98;;;;;;;;;;4972160;28;20505;-62
2023/04/18 04:46:21;;;;;;;13.48;11.48;;;;;;;;;;4972140;28;20035;-62
2023/04/18 04:48:48;;;;;;;13.27;11.35;;;;;;;;;;4972067;28;20027;-62
2023/04/18 04:51:14;;;;;;;14.70;11.63;;;;;;;;;;4971375;28;20106;-62
2023/04/18 04:53:40;;;;;;;16.30;12.05;;;;;;;;;;4971853;28;20471;-62
2023/04/18 04:56:06;;;;;;;14.05;11.77;;;;;;;;;;4971928;28;20105;-62
2023/04/18 04:58:33;;;;;;;14.10;11.85;;;;;;;;;;4971695;28;20027;-62
2023/04/18 05:00:59;;;;;;;12.88;11.23;;;;;;;;;;4971941;28;20031;-62
2023/04/18 05:03:25;;;;;;;13.70;11.00;;;;;;;;;;4971451;28;20484;-62
2023/04/18 05:05:51;;;;;;;13.52;10.93;;;;;;;;;;4971607;28;20546;-62
2023/04/18 05:08:17;;;;;;;12.88;10.50;;;;;;;;;;4971910;28;20041;-62
2023/04/18 05:10:44;;;;;;;11.07;9.93;;;;;;;;;;4970674;28;20463;-62
2023/04/18 05:13:10;;;;;;;13.95;11.55;;;;;;;;;;4972190;28;20027;-62
2023/04/18 05:15:36;;;;;;;13.43;10.25;;;;;;;;;;4971174;28;20030;-62
2023/04/18 05:18:02;;;;;;;11.85;10.20;;;;;;;;;;4971884;28;20046;-62
2023/04/18 05:20:28;;;;;;;12.48;10.70;;;;;;;;;;4972174;28;20058;-61
2023/04/18 05:22:54;;;;;;;12.40;10.25;;;;;;;;;;4971312;28;20121;-62
2023/04/18 05:25:20;;;;;;;11.45;10.05;;;;;;;;;;4971828;28;20402;-62
2023/04/18 05:27:46;;;;;;;11.88;10.55;;;;;;;;;;4985763;28;20030;-62
2023/04/18 05:30:12;;;;;;;11.93;10.20;;;;;;;;;;4965327;28;20027;-63
2023/04/18 05:32:39;;;;;;;13.48;10.32;;;;;;;;;;4970535;28;20403;-62
2023/04/18 05:35:05;;;;;;;11.30;9.52;;;;;;;;;;4971977;28;20027;-62
2023/04/18 05:37:31;;;;;;;11.20;9.82;;;;;;;;;;4972089;28;20027;-61
2023/04/18 05:39:57;;;;;;;12.45;10.50;;;;;;;;;;4971385;28;20388;-62
2023/04/18 05:42:24;;;;;;;13.90;9.50;;;;;;;;;;4971393;28;20039;-64
2023/04/18 05:44:50;;;;;;;11.35;9.70;;;;;;;;;;4971704;28;20031;-62
2023/04/18 05:47:16;;;;;;;12.02;9.85;;;;;;;;;;4972208;28;20035;-62
2023/04/18 05:49:42;;;;;;;14.57;9.80;;;;;;;;;;4971763;28;20056;-63
2023/04/18 05:52:08;;;;;;;11.65;9.35;;;;;;;;;;4971640;28;20033;-62
2023/04/18 05:54:34;;;;;;;10.35;8.98;;;;;;;;;;4971156;28;20030;-62
2023/04/18 05:57:00;;;;;;;11.52;9.93;;;;;;;;;;4972237;28;20101;-62
2023/04/18 05:59:26;;;;;;;12.93;9.65;;;;;;;;;;4972087;28;20031;-62
2023/04/18 06:01:52;;;;;;;11.40;9.40;;;;;;;;;;4971115;28;20109;-62
2023/04/18 06:04:19;;;;;;;13.13;10.10;;;;;;;;;;4973737;28;20059;-63
2023/04/18 06:06:45;;;;;;;11.27;9.40;;;;;;;;;;4975365;28;20038;-62
2023/04/18 06:09:11;;;;;;;15.70;8.82;;;;;;;;;;4975530;28;20019;-63
2023/04/18 06:11:37;;;;;;;15.00;8.63;;;;;;;;;;4975222;28;20057;-63
2023/04/18 06:14:03;;;;;;;11.48;9.10;;;;;;;;;;4974656;28;20463;-64
2023/04/18 06:16:29;;;;;;;13.38;9.40;;;;;;;;;;4973867;28;20161;-63
2023/04/18 06:18:56;;;;;;;9.63;8.35;;;;;;;;;;4974875;28;20030;-63
2023/04/18 06:21:22;;;;;;;11.52;8.80;;;;;;;;;;4968517;28;20031;-63
2023/04/18 06:23:48;;;;;;;11.50;9.20;;;;;;;;;;4955899;29;20444;-64
2023/04/18 06:26:14;;;;;;;10.93;8.77;;;;;;;;;;4956103;29;20047;-64
2023/04/18 06:28:40;;;;;;;10.57;9.15;;;;;;;;;;4960411;28;20050;-63
2023/04/18 06:31:07;;;;;;;10.80;8.63;;;;;;;;;;4973162;28;20483;-63
2023/04/18 06:33:34;;;;;;;11.07;8.90;;;;;;;;;;4975747;28;20041;-65
2023/04/18 06:36:00;;;;;;;10.80;8.50;;;;;;;;;;4974579;28;20498;-64
2023/04/18 06:38:26;;;;;;;9.63;7.88;;;;;;;;;;4974573;28;20034;-63
2023/04/18 06:40:52;;;;;;;10.05;8.73;;;;;;;;;;4974849;28;20097;-63
2023/04/18 06:43:18;;;;;;;12.57;9.00;;;;;;;;;;4974866;28;20045;-64
2023/04/18 06:45:44;;;;;;;12.02;8.15;;;;;;;;;;4974635;28;20115;-63
2023/04/18 06:48:10;;;;;;;14.13;8.35;;;;;;;;;;4974944;28;20022;-64
2023/04/18 06:50:36;;;;;;;13.20;8.77;;;;;;;;;;4973760;28;20033;-64
2023/04/18 06:53:02;;;;;;;10.05;7.93;;;;;;;;;;4974667;28;20041;-64
2023/04/18 06:55:28;;;;;;;11.05;8.20;;;;;;;;;;4979516;28;20484;-64
2023/04/18 06:57:54;;;;;;;11.73;8.68;;;;;;;;;;4981863;28;20042;-64
2023/04/18 07:00:21;;;;;;;9.52;8.48;;;;;;;;;;4982703;28;20466;-64
2023/04/18 07:02:47;;;;;;;10.18;8.32;;;;;;;;;;4983349;28;20062;-64
2023/04/18 07:05:13;;;;;;;12.43;9.23;;;;;;;;;;4979060;28;20019;-64
2023/04/18 07:07:39;;;;;;;13.95;8.55;;;;;;;;;;4982590;28;20033;-64
2023/04/18 07:10:06;;;;;;;10.77;8.20;;;;;;;;;;4983254;28;20102;-64
2023/04/18 07:12:32;;;;;;;9.65;8.25;;;;;;;;;;4981534;28;20430;-64
2023/04/18 07:14:58;;;;;;;12.48;8.43;;;;;;;;;;4982773;28;20018;-64
2023/04/18 07:17:24;;;;;;;9.35;8.13;;;;;;;;;;4992382;28;20030;-65
2023/04/18 07:19:50;;;;;;;11.80;8.40;;;;;;;;;;4993759;28;20104;-64
2023/04/18 07:22:16;;;;;;;9.90;7.72;;;;;;;;;;4993508;28;20030;-64
2023/04/18 07:24:42;;;;;;;10.80;8.10;;;;;;;;;;4993389;28;20026;-64
2023/04/18 07:27:09;;;;;;;9.30;7.47;;;;;;;;;;4993479;28;20478;-64
2023/04/18 07:29:35;;;;;;;9.80;7.43;;;;;;;;;;4993282;28;20501;-65
2023/04/18 07:32:01;;;;;;;10.90;7.65;;;;;;;;;;4993424;28;20034;-65
2023/04/18 07:34:28;;;;;;;9.45;7.43;;;;;;;;;;4993815;28;20053;-64
2023/04/18 07:36:54;;;;;;;8.45;6.68;;;;;;;;;;4993333;28;20076;-64
2023/04/18 07:39:21;;;;;;;10.05;7.25;;;;;;;;;;4992138;28;20034;-64
2023/04/18 07:41:46;;;;;;;14.52;8.20;;;;;;;;;;4992902;28;20077;-64
2023/04/18 07:44:12;;;;;;;10.38;7.85;;;;;;;;;;4993416;28;20034;-64
2023/04/18 07:46:39;;;;;;;9.15;7.10;;;;;;;;;;4993053;28;20468;-64
2023/04/18 07:49:05;;;;;;;9.50;7.35;;;;;;;;;;4993295;28;20018;-64
2023/04/18 07:51:31;;;;;;;9.63;7.47;;;;;;;;;;4993595;28;20037;-64
2023/04/18 07:53:57;;;;;;;9.75;7.22;;;;;;;;;;4993271;28;20065;-67
2023/04/18 07:56:23;;;;;;;9.07;6.43;;;;;;;;;;4991778;28;20486;-65
2023/04/18 07:58:49;;;;;;;8.70;6.80;;;;;;;;;;4992836;28;20105;-63
2023/04/18 08:01:17;;;;;;;8.98;6.57;;;;;;;;;;4993051;28;20479;-64
2023/04/18 08:03:43;;;;;;;8.48;6.18;;;;;;;;;;4993000;28;20478;-64
2023/04/18 08:06:09;;;;;;;7.78;6.55;;;;;;;;;;4992829;28;20045;-64
2023/04/18 08:08:35;;;;;;;8.02;6.43;;;;;;;;;;4992725;28;20160;-64
2023/04/18 08:11:01;;;;;;;8.90;6.60;;;;;;;;;;4993067;28;20153;-64
2023/04/18 08:13:27;;;;;;;8.30;6.70;;;;;;;;;;4992522;28;20037;-63
2023/04/18 08:15:54;;;;;;;9.43;6.57;;;;;;;;;;4992614;28;20038;-63
2023/04/18 08:18:21;;;;;;;8.90;5.88;;;;;;;;;;4992765;28;20101;-63
2023/04/18 08:20:48;;;;;;;8.85;6.63;;;;;;;;;;4992418;28;20026;-63
2023/04/18 08:23:14;;;;;;;7.55;6.10;;;;;;;;;;4992777;28;20130;-63
2023/04/18 08:25:40;;;;;;;7.78;6.13;;;;;;;;;;4991570;28;20030;-63
2023/04/18 08:28:06;;;;;;;8.30;5.93;;;;;;;;;;4992581;28;20101;-65
2023/04/18 08:30:32;;;;;;;6.95;5.85;;;;;;;;;;4992260;28;20018;-65
2023/04/18 08:32:59;;;;;;;7.60;5.93;;;;;;;;;;4992754;28;20413;-64
2023/04/18 08:35:25;;;;;;;7.78;5.68;;;;;;;;;;4992277;28;20475;-65
2023/04/18 08:37:51;;;;;;;7.40;5.97;;;;;;;;;;4992050;28;20588;-65
2023/04/18 08:40:17;;;;;;;6.82;5.60;;;;;;;;;;4992405;28;20027;-64
2023/04/18 08:42:44;;;;;;;9.02;5.93;;;;;;;;;;4991965;28;20030;-65
2023/04/18 08:45:12;;;;;;;6.82;5.82;;;;;;;;;;4992105;28;20060;-65
2023/04/18 08:47:38;;;;;;;7.18;5.82;;;;;;;;;;4992068;28;20110;-65
2023/04/18 08:50:04;;;;;;;8.30;5.93;;;;;;;;;;4992163;28;20105;-65
2023/04/18 08:52:31;;;;;;;7.40;5.72;;;;;;;;;;4992422;28;20504;-64
2023/04/18 08:54:57;;;;;;;7.30;6.07;;;;;;;;;;4992333;28;20113;-64
2023/04/18 08:57:25;;;;;;;7.57;5.72;;;;;;;;;;4992119;28;20038;-64
2023/04/18 08:59:52;;;;;;;9.18;5.97;;;;;;;;;;4991832;28;20030;-64
2023/04/18 09:02:21;;;;;;;7.40;5.13;;;;;;;;;;4991951;28;20038;-64
2023/04/18 09:04:51;;;;;;;7.18;5.13;;;;;;;;;;4977285;28;20023;-64
2023/04/18 09:07:18;;;;;;;7.28;5.25;;;;;;;;;;4972611;28;20043;-64
2023/04/18 09:09:48;;;;;;;6.70;4.88;;;;;;;;;;4972324;28;20035;-65
2023/04/18 09:12:17;;;;;;;7.45;5.88;;;;;;;;;;4972385;28;20035;-64
2023/04/18 09:14:44;;;;;;;6.50;5.55;;;;;;;;;;4972250;28;20023;-64
2023/04/18 09:17:12;;;;;;;9.15;5.90;;;;;;;;;;4972690;28;20089;-65
2023/04/18 09:19:45;;;;;;;6.72;5.47;;;;;;;;;;4972285;28;20030;-64
2023/04/18 09:22:12;;;;;;;5.55;4.65;;;;;;;;;;4972354;28;20058;-64
2023/04/18 09:24:38;;;;;;;6.10;4.93;;;;;;;;;;4972230;28;20038;-64
2023/04/18 09:27:13;;;;;;;7.20;4.78;;;;;;;;;;4972284;28;20045;-65
2023/04/18 09:29:45;;;;;;;8.40;5.22;;;;;;;;;;4972122;28;20061;-65
2023/04/18 09:32:18;;;;;;;6.35;4.95;;;;;;;;;;4972241;28;20034;-65
2023/04/18 09:34:44;;;;;;;5.78;5.00;;;;;;;;;;4972197;28;20472;-65
2023/04/18 09:37:12;;;;;;;6.38;5.22;;;;;;;;;;4973259;28;20034;-65
2023/04/18 09:39:38;;;;;;;6.32;4.82;;;;;;;;;;4976044;28;20111;-65
2023/04/18 09:42:04;;;;;;;8.05;5.00;;;;;;;;;;4975957;28;20114;-65
2023/04/18 09:44:31;;;;;;;5.78;4.93;;;;;;;;;;4976407;28;20050;-65
2023/04/18 09:46:57;;;;;;;5.65;4.10;;;;;;;;;;4976382;28;20031;-65
2023/04/18 09:49:23;;;;;;;5.18;4.38;;;;;;;;;;4976106;28;20023;-65
2023/04/18 09:51:53;;;;;;;6.25;4.63;;;;;;;;;;4975852;28;20022;-64
2023/04/18 09:54:19;;;;;;;7.53;5.00;;;;;;;;;;4975975;28;20023;-65
2023/04/18 09:56:46;;;;;;;5.57;4.47;;;;;;;;;;4975815;28;20467;-65
2023/04/18 09:59:16;;;;;;;5.07;4.55;;;;;;;;;;4976431;28;20035;-64
2023/04/18 10:01:44;;;;;;;6.28;4.97;;;;;;;;;;4983871;28;20478;-64
2023/04/18 10:04:11;;;;;;;8.55;4.72;;;;;;;;;;4984792;28;20053;-64
2023/04/18 10:06:38;;;;;;;5.95;4.63;;;;;;;;;;4983231;28;20041;-63
2023/04/18 10:09:05;;;;;;;5.85;4.57;;;;;;;;;;4983601;28;20077;-64
2023/04/18 10:11:31;;;;;;;5.18;4.38;;;;;;;;;;4983214;28;20030;-64
2023/04/18 10:14:00;;;;;;;5.03;4.22;;;;;;;;;;4984342;28;20105;-64
2023/04/18 10:16:27;;;;;;;7.45;4.50;;;;;;;;;;4984706;28;20104;-64
2023/04/18 10:18:53;;;;;;;7.53;4.72;;;;;;;;;;4979933;28;20022;-64
2023/04/18 10:21:20;;;;;;;8.18;4.93;;;;;;;;;;4983746;28;20033;-64
2023/04/18 10:23:47;;;;;;;9.13;5.32;;;;;;;;;;4984315;28;20022;-64
2023/04/18 10:26:14;;;;;;;9.90;6.22;;;;;;;;;;4979941;28;20069;-64
2023/04/18 10:28:51;;;;;;;10.27;7.18;;;;;;;;;;4983247;28;20019;-64
2023/04/18 10:31:17;;;;;;;16.33;11.02;;;;;;;;;;4980941;28;20045;-64
2023/04/18 10:33:48;;;;;;;27.20;14.98;;;;;;;;;;4982740;28;20053;-64
2023/04/18 10:36:16;;;;;;;29.33;16.23;;;;;;;;;;4984252;28;20093;-64
2023/04/18 10:39:02;;;;;;;42.03;18.73;;;;;;;;;;4983391;28;20066;-64
2023/04/18 10:41:30;;;;;;;41.13;20.33;;;;;;;;;;4984567;28;20042;-64
2023/04/18 10:44:14;;;;;;;44.28;20.90;;;;;;;;;;4982539;28;20031;-64
2023/04/18 10:46:39;;;;;;;47.92;22.40;;;;;;;;;;4980828;28;20499;-64
2023/04/18 10:49:24;;;;;;;48.15;23.05;;;;;;;;;;4989212;28;20038;-64
2023/04/18 10:52:00;;;;;;;45.40;21.30;;;;;;;;;;4981118;28;20492;-64
2023/04/18 10:54:38;;;;;;;39.90;20.23;;;;;;;;;;4982731;28;20105;-63
2023/04/18 10:57:06;;;;;;;46.72;21.02;;;;;;;;;;4979560;28;20042;-64
2023/04/18 10:59:33;;;;;;;42.28;19.15;;;;;;;;;;4982696;28;20042;-63
2023/04/18 11:02:04;;;;;;;41.60;19.67;;;;;;;;;;4984142;28;20030;-63
2023/04/18 11:04:30;;;;;;;42.80;19.05;;;;;;;;;;4983075;28;20514;-63
2023/04/18 11:06:57;;;;;;;45.67;19.73;;;;;;;;;;4982162;28;20035;-63
2023/04/18 11:09:23;;;;;;;40.67;19.85;;;;;;;;;;4983838;28;20019;-63
2023/04/18 11:12:08;;;;;;;36.28;18.35;;;;;;;;;;4982130;28;20373;-63
2023/04/18 11:14:40;;;;;;;42.97;17.80;;;;;;;;;;4981511;28;20090;-64
2023/04/18 11:17:22;;;;;;;38.20;18.30;;;;;;;;;;4978747;28;20052;-63
2023/04/18 11:19:50;;;;;;;40.08;16.73;;;;;;;;;;4977559;28;20022;-63
2023/04/18 11:22:16;;;;;;;35.05;16.60;;;;;;;;;;4981587;28;20031;-64
2023/04/18 11:24:42;;;;;;;37.00;17.23;;;;;;;;;;4981390;28;20027;-63
2023/04/18 11:27:09;;;;;;;37.40;15.20;;;;;;;;;;4982334;28;20495;-64
2023/04/18 11:29:35;;;;;;;39.40;15.05;;;;;;;;;;4982915;28;20106;-63
2023/04/18 11:32:01;;;;;;;31.00;14.85;;;;;;;;;;4981263;28;20050;-64
2023/04/18 11:34:30;;;;;;;28.30;14.38;;;;;;;;;;4982453;28;20060;-64
2023/04/18 11:36:57;;;;;;;28.70;14.07;;;;;;;;;;4983355;28;20037;-64
2023/04/18 11:39:23;;;;;;;28.70;12.95;;;;;;;;;;4981329;28;20030;-63
2023/04/18 11:41:49;;;;;;;27.60;13.85;;;;;;;;;;4981791;28;20093;-63
2023/04/18 11:44:16;;;;;;;25.98;13.10;;;;;;;;;;4980206;28;20039;-63
2023/04/18 11:46:43;;;;;;;25.77;12.52;;;;;;;;;;4983083;28;20035;-63
2023/04/18 11:49:23;;;;;;;28.23;13.45;;;;;;;;;;4981980;28;20023;-64
2023/04/18 11:51:49;;;;;;;23.52;11.93;;;;;;;;;;4993052;28;20101;-64
2023/04/18 11:54:34;;;;;;;20.90;11.13;;;;;;;;;;4993386;28;20089;-64
2023/04/18 11:57:01;;;;;;;23.35;11.35;;;;;;;;;;4993490;28;20512;-64
2023/04/18 11:59:27;;;;;;;22.27;11.60;;;;;;;;;;4993347;28;20030;-64
2023/04/18 12:02:00;;;;;;;22.33;12.15;;;;;;;;;;4991900;28;20022;-63
2023/04/18 12:04:27;;;;;;;19.42;10.57;;;;;;;;;;4993417;28;20026;-64
2023/04/18 12:06:53;;;;;;;22.42;11.02;;;;;;;;;;4985542;28;20471;-63
2023/04/18 12:09:21;;;;;;;17.98;11.00;;;;;;;;;;4980044;28;20034;-63
2023/04/18 12:11:57;;;;;;;20.48;10.00;;;;;;;;;;4978391;28;20022;-63
2023/04/18 12:14:23;;;;;;;16.85;9.93;;;;;;;;;;4980774;28;20027;-63
2023/04/18 12:16:49;;;;;;;18.65;9.50;;;;;;;;;;4981798;28;20040;-63
2023/04/18 12:19:15;;;;;;;15.07;9.00;;;;;;;;;;4981750;28;20517;-63
2023/04/18 12:21:55;;;;;;;16.48;9.60;;;;;;;;;;5127875;27;20383;-63
2023/04/18 12:24:22;;;;;;;17.55;9.00;;;;;;;;;;5128000;28;20044;-63
2023/04/18 12:26:49;;;;;;;18.13;9.43;;;;;;;;;;5127933;28;20027;-62
2023/04/18 12:29:16;;;;;;;15.68;9.75;;;;;;;;;;5127907;27;20023;-62
2023/04/18 12:31:42;;;;;;;15.30;9.15;;;;;;;;;;5127562;28;20031;-62
2023/04/18 12:34:08;;;;;;;15.85;9.27;;;;;;;;;;5128936;28;20030;-63
2023/04/18 12:36:34;;;;;;;15.13;9.45;;;;;;;;;;5128788;27;20102;-62
2023/04/18 12:39:00;;;;;;;12.82;8.50;;;;;;;;;;5129328;27;20027;-62
2023/04/18 12:41:26;;;;;;;13.65;8.43;;;;;;;;;;5128165;27;20547;-62
2023/04/18 12:43:52;;;;;;;16.55;8.75;;;;;;;;;;5129068;27;20023;-63
2023/04/18 12:46:18;;;;;;;13.93;8.25;;;;;;;;;;5128664;27;20475;-62
2023/04/18 12:48:44;;;;;;;13.32;8.25;;;;;;;;;;5128828;27;20068;-63
2023/04/18 12:51:10;;;;;;;12.75;8.68;;;;;;;;;;5129046;27;20104;-63
2023/04/18 12:53:36;;;;;;;14.45;9.23;;;;;;;;;;5128839;28;20022;-63
2023/04/18 12:56:02;;;;;;;14.52;8.48;;;;;;;;;;5129120;27;20073;-63
2023/04/18 12:58:28;;;;;;;12.13;8.27;;;;;;;;;;5129219;27;20392;-63
2023/04/18 13:00:55;;;;;;;14.13;8.35;;;;;;;;;;5128790;27;20044;-63
2023/04/18 13:03:21;;;;;;;12.05;8.55;;;;;;;;;;5128679;27;20806;-63
2023/04/18 13:05:47;;;;;;;11.90;8.25;;;;;;;;;;5127806;27;20053;-63
2023/04/18 13:08:13;;;;;;;13.85;8.88;;;;;;;;;;5127996;27;20495;-63
2023/04/18 13:10:39;;;;;;;13.13;7.57;;;;;;;;;;5128313;28;20035;-63
2023/04/18 13:13:05;;;;;;;11.13;8.15;;;;;;;;;;5128526;27;20027;-63
2023/04/18 13:15:31;;;;;;;10.90;7.15;;;;;;;;;;5128388;27;20042;-63
2023/04/18 13:18:03;;;;;;;11.77;7.30;;;;;;;;;;5128186;27;20040;-63
2023/04/18 13:20:29;;;;;;;12.57;7.82;;;;;;;;;;5128257;27;20049;-63
2023/04/18 13:22:55;;;;;;;13.32;7.68;;;;;;;;;;5128095;27;20518;-62
2023/04/18 13:25:21;;;;;;;13.00;7.82;;;;;;;;;;5128063;27;20106;-63
2023/04/18 13:27:48;;;;;;;10.73;7.70;;;;;;;;;;5127875;27;20387;-64
2023/04/18 13:30:15;;;;;;;10.93;7.47;;;;;;;;;;5128135;27;20395;-64
2023/04/18 13:32:42;;;;;;;12.30;7.53;;;;;;;;;;5116765;27;20161;-65
2023/04/18 13:35:09;;;;;;;10.60;7.13;;;;;;;;;;5112331;28;20422;-65
2023/04/18 13:37:35;;;;;;;10.95;7.50;;;;;;;;;;5113596;28;20072;-64
2023/04/18 13:40:04;;;;;;;10.55;7.40;;;;;;;;;;5113829;28;20027;-64
2023/04/18 13:42:30;;;;;;;8.32;6.90;;;;;;;;;;5113899;28;20028;-64
2023/04/18 13:44:56;;;;;;;9.88;6.63;;;;;;;;;;5113439;28;20487;-64
2023/04/18 13:47:23;;;;;;;9.65;7.30;;;;;;;;;;5114232;28;20116;-64
2023/04/18 13:49:49;;;;;;;10.27;6.70;;;;;;;;;;5113994;28;20019;-64
2023/04/18 13:52:14;;;;;;;11.50;7.50;;;;;;;;;;5114295;28;20024;-64
2023/04/18 13:54:41;;;;;;;12.82;6.75;;;;;;;;;;5113963;28;20043;-64
2023/04/18 13:57:10;;;;;;;11.30;7.22;;;;;;;;;;5114189;28;20080;-64
2023/04/18 13:59:37;;;;;;;9.80;6.50;;;;;;;;;;5113302;28;20036;-64
2023/04/18 14:02:03;;;;;;;11.73;6.45;;;;;;;;;;5113431;28;20507;-64
2023/04/18 14:04:30;;;;;;;10.23;7.18;;;;;;;;;;5112956;28;20030;-64
2023/04/18 14:06:56;;;;;;;9.15;6.75;;;;;;;;;;5114160;28;20063;-64
2023/04/18 14:09:22;;;;;;;13.00;7.43;;;;;;;;;;5113508;28;20149;-64
2023/04/18 14:11:49;;;;;;;9.00;6.68;;;;;;;;;;5112887;28;20103;-64
2023/04/18 14:14:16;;;;;;;10.23;7.07;;;;;;;;;;5113593;28;20024;-64
2023/04/18 14:16:42;;;;;;;11.05;6.82;;;;;;;;;;5112790;28;20164;-64
2023/04/18 14:19:08;;;;;;;9.95;6.45;;;;;;;;;;5113632;28;20023;-63
2023/04/18 14:21:34;;;;;;;9.27;6.95;;;;;;;;;;5111128;28;20035;-64
2023/04/18 14:24:00;;;;;;;8.50;6.57;;;;;;;;;;5113881;28;20020;-63